Time;durP1;ratioP1;P1;durP2;ratioP2;P2;SDS_P1;SDS_P2;PMS_P1;PMS_P2;Temp;Humidity;BMP_temperature;BMP_pressure;BME280_temperature;BME280_humidity;BME280_pressure;Samples;Min_cycle;Max_cycle;Signal;HPM_P1;HPM_P2
2023/01/24 00:01:09;;;;;;;3.80;3.40;;;5.90;99.90;;;;;;6253495;28;20435;-61
2023/01/24 00:04:12;;;;;;;3.53;3.23;;;5.90;99.90;;;;;;6253041;28;20953;-61
2023/01/24 00:07:15;;;;;;;3.73;3.40;;;5.90;99.90;;;;;;6253684;28;20486;-60
2023/01/24 00:10:19;;;;;;;3.13;2.93;;;5.90;99.90;;;;;;6252847;28;20466;-60
2023/01/24 00:13:23;;;;;;;4.50;4.10;;;5.90;99.90;;;;;;6252890;28;20954;-61
2023/01/24 00:16:27;;;;;;;4.33;4.03;;;5.80;99.90;;;;;;6252677;28;20852;-60
2023/01/24 00:19:30;;;;;;;4.40;4.10;;;5.80;99.90;;;;;;6250591;28;20474;-60
2023/01/24 00:22:33;;;;;;;3.83;3.30;;;5.90;99.90;;;;;;6252517;28;20851;-60
2023/01/24 00:25:36;;;;;;;3.33;3.03;;;5.90;99.90;;;;;;6252629;28;20993;-60
2023/01/24 00:28:41;;;;;;;3.40;3.20;;;5.80;99.90;;;;;;6252658;28;20532;-60
2023/01/24 00:31:45;;;;;;;3.00;2.80;;;5.80;99.90;;;;;;6252752;28;20959;-60
2023/01/24 00:34:49;;;;;;;3.47;3.17;;;5.80;99.90;;;;;;6252982;28;20464;-61
2023/01/24 00:37:52;;;;;;;4.90;3.20;;;5.80;99.90;;;;;;6244224;28;20478;-61
2023/01/24 00:40:55;;;;;;;4.07;3.67;;;5.90;99.90;;;;;;6253165;28;20483;-61
2023/01/24 00:43:59;;;;;;;3.60;3.30;;;5.80;99.90;;;;;;6252602;28;20906;-61
2023/01/24 00:47:03;;;;;;;3.17;2.97;;;5.80;99.90;;;;;;6253036;28;20505;-61
2023/01/24 00:50:07;;;;;;;3.10;2.67;;;5.80;99.90;;;;;;6252396;28;20800;-61
2023/01/24 00:53:11;;;;;;;3.50;3.20;;;5.90;99.90;;;;;;6252999;28;20481;-61
2023/01/24 00:56:14;;;;;;;3.60;3.30;;;5.90;99.90;;;;;;6252171;28;20486;-61
2023/01/24 00:59:19;;;;;;;3.60;3.30;;;5.90;99.90;;;;;;6252802;28;20470;-60
2023/01/24 01:02:22;;;;;;;3.43;3.13;;;5.90;99.90;;;;;;6252742;28;20501;-60
2023/01/24 01:05:26;;;;;;;3.60;3.30;;;5.90;99.90;;;;;;6251575;28;20959;-60
2023/01/24 01:08:29;;;;;;;3.50;3.20;;;6.00;99.90;;;;;;6251661;28;20476;-61
2023/01/24 01:11:32;;;;;;;3.53;3.23;;;6.00;99.90;;;;;;6251863;28;20943;-60
2023/01/24 01:14:37;;;;;;;4.53;4.20;;;5.90;99.90;;;;;;6252021;28;20967;-60
2023/01/24 01:17:40;;;;;;;3.53;3.23;;;5.90;99.90;;;;;;6251891;28;20471;-60
2023/01/24 01:20:49;;;;;;;3.80;3.47;;;5.80;99.90;;;;;;6249629;28;20985;-60
2023/01/24 01:23:52;;;;;;;4.30;4.00;;;5.70;99.90;;;;;;6252301;28;20476;-60
2023/01/24 01:26:55;;;;;;;4.33;4.03;;;5.80;99.90;;;;;;6251999;28;20479;-60
2023/01/24 01:30:00;;;;;;;4.40;4.00;;;5.80;99.90;;;;;;6251489;28;20500;-61
2023/01/24 01:33:03;;;;;;;4.70;4.30;;;5.90;99.90;;;;;;6252015;28;20479;-61
2023/01/24 01:36:07;;;;;;;3.67;3.43;;;5.90;99.90;;;;;;6251805;28;20471;-61
2023/01/24 01:39:10;;;;;;;4.13;3.80;;;5.90;99.90;;;;;;6251935;28;20475;-61
2023/01/24 01:42:14;;;;;;;4.20;3.90;;;5.90;99.90;;;;;;6242511;28;20490;-61
2023/01/24 01:45:43;;;;;;;4.20;3.80;;;5.90;99.90;;;;;;6251602;28;20481;-61
2023/01/24 01:48:49;;;;;;;4.00;3.70;;;5.70;99.90;;;;;;6251311;28;20475;-61
2023/01/24 01:51:56;;;;;;;4.33;4.00;;;5.70;99.90;;;;;;6251385;28;20475;-60
2023/01/24 01:55:05;;;;;;;5.60;4.00;;;5.70;99.90;;;;;;6251269;28;20478;-61
2023/01/24 01:58:09;;;;;;;4.20;3.80;;;5.80;99.90;;;;;;6251397;28;20925;-61
2023/01/24 02:01:13;;;;;;;4.20;3.80;;;5.80;99.90;;;;;;6251080;28;20783;-61
2023/01/24 02:04:20;;;;;;;3.83;3.53;;;5.90;99.90;;;;;;6251049;28;20466;-61
2023/01/24 02:07:26;;;;;;;3.87;3.50;;;5.90;99.90;;;;;;6250117;28;20954;-60
2023/01/24 02:11:37;;;;;;;4.03;3.73;;;5.80;99.90;;;;;;6250737;28;20475;-60
2023/01/24 02:16:02;;;;;;;3.80;3.30;;;5.70;99.90;;;;;;6250585;28;20471;-60
2023/01/24 02:17:21;;;;;;;4.10;3.70;;;5.80;99.90;;;;;;6251098;28;20467;-60
2023/01/24 02:20:38;;;;;;;3.50;2.90;;;5.80;99.90;;;;;;6250776;28;20482;-60
2023/01/24 02:23:51;;;;;;;3.70;3.30;;;5.80;99.90;;;;;;6250550;28;20475;-60
2023/01/24 02:26:55;;;;;;;3.40;3.10;;;5.90;99.90;;;;;;6250775;28;20475;-60
2023/01/24 02:29:59;;;;;;;3.47;3.20;;;5.90;99.90;;;;;;6250262;28;20475;-60
2023/01/24 02:33:10;;;;;;;3.33;2.80;;;5.90;99.90;;;;;;6250261;28;20808;-60
2023/01/24 02:36:22;;;;;;;3.00;2.80;;;5.90;99.90;;;;;;6250239;28;20478;-60
2023/01/24 02:39:30;;;;;;;2.90;2.70;;;5.90;99.90;;;;;;6250326;28;20474;-60
2023/01/24 02:42:37;;;;;;;3.20;3.00;;;5.90;99.90;;;;;;6250441;28;20810;-60
2023/01/24 02:45:40;;;;;;;2.90;2.70;;;5.90;99.90;;;;;;6245808;28;20852;-60
2023/01/24 02:48:44;;;;;;;4.40;3.30;;;6.00;99.90;;;;;;6249650;28;21008;-60
2023/01/24 02:55:08;;;;;;;3.17;2.87;;;5.90;99.90;;;;;;6250465;28;20451;-60
2023/01/24 02:58:12;;;;;;;3.07;2.87;;;5.90;99.90;;;;;;6250364;28;20470;-60
2023/01/24 03:01:15;;;;;;;2.87;2.67;;;6.00;99.90;;;;;;6250086;28;20442;-60
2023/01/24 03:04:18;;;;;;;3.00;2.80;;;6.00;99.90;;;;;;6249293;28;20878;-60
2023/01/24 03:07:22;;;;;;;4.20;3.80;;;6.00;99.90;;;;;;6250240;28;20482;-60
2023/01/24 03:10:25;;;;;;;3.97;3.60;;;5.90;99.90;;;;;;6249143;28;20934;-61
2023/01/24 03:36:55;;;;;;;3.90;3.60;;;6.00;99.90;;;;;;6249533;28;20477;-65
2023/01/24 03:40:00;;;;;;;6.40;5.90;;;6.00;99.90;;;;;;6249277;28;20471;-65
2023/01/24 03:43:05;;;;;;;9.60;8.67;;;5.90;99.90;;;;;;6249556;28;20462;-65
2023/01/24 03:46:09;;;;;;;8.33;7.63;;;5.90;99.90;;;;;;6245326;28;20439;-64
2023/01/24 03:49:13;;;;;;;7.00;6.30;;;5.90;99.90;;;;;;6249375;28;20628;-64
2023/01/24 03:52:30;;;;;;;6.00;5.43;;;6.00;99.90;;;;;;6248993;28;20899;-65
2023/01/24 03:55:33;;;;;;;4.20;3.80;;;6.00;99.90;;;;;;6249504;28;20478;-65
2023/01/24 03:58:36;;;;;;;4.00;3.70;;;6.00;99.90;;;;;;6249001;28;20485;-65
2023/01/24 04:01:41;;;;;;;3.07;2.83;;;6.00;99.90;;;;;;6249517;28;20486;-65
2023/01/24 04:08:07;;;;;;;3.13;2.93;;;5.80;99.90;;;;;;6249108;28;20491;-65
2023/01/24 04:11:10;;;;;;;3.37;3.07;;;5.90;99.90;;;;;;6249326;28;20470;-65
2023/01/24 04:14:14;;;;;;;4.17;3.77;;;5.80;99.90;;;;;;6249193;28;20474;-65
2023/01/24 04:17:18;;;;;;;3.47;3.20;;;5.90;99.90;;;;;;6249382;28;20471;-65
2023/01/24 04:20:21;;;;;;;3.47;3.17;;;6.00;99.90;;;;;;6249206;28;20490;-65
2023/01/24 04:23:25;;;;;;;8.70;3.43;;;6.00;99.90;;;;;;6249002;28;20486;-65
2023/01/24 04:26:28;;;;;;;3.43;3.13;;;6.10;99.90;;;;;;6248955;28;20478;-65
2023/01/24 04:29:31;;;;;;;4.07;3.77;;;6.10;99.90;;;;;;6248585;28;20532;-65
2023/01/24 04:32:36;;;;;;;4.90;4.30;;;6.10;99.90;;;;;;6253572;28;20473;-65
2023/01/24 04:35:39;;;;;;;5.00;3.73;;;6.00;99.90;;;;;;6228893;28;20474;-65
2023/01/24 04:38:42;;;;;;;5.40;4.90;;;6.00;99.90;;;;;;6228925;28;20472;-65
2023/01/24 04:41:45;;;;;;;4.80;4.30;;;6.00;99.90;;;;;;6228126;28;20972;-65
2023/01/24 04:44:49;;;;;;;3.87;3.57;;;5.90;99.90;;;;;;6228509;28;20815;-65
2023/01/24 04:47:54;;;;;;;3.40;3.10;;;5.90;99.90;;;;;;6228460;28;20486;-64
2023/01/24 04:51:00;;;;;;;3.73;3.43;;;5.90;99.90;;;;;;6247685;28;20471;-64
2023/01/24 04:54:03;;;;;;;3.40;3.10;;;5.90;99.90;;;;;;6252923;28;20962;-65
2023/01/24 04:57:06;;;;;;;3.70;3.40;;;6.00;99.90;;;;;;6252769;28;20490;-65
2023/01/24 05:00:11;;;;;;;3.43;3.10;;;6.00;99.90;;;;;;6252787;28;20508;-64
2023/01/24 05:03:15;;;;;;;2.60;2.40;;;6.00;99.90;;;;;;6252941;28;20474;-65
2023/01/24 05:06:18;;;;;;;3.23;3.03;;;6.00;99.90;;;;;;6252550;28;20550;-65
2023/01/24 05:09:21;;;;;;;3.83;3.40;;;6.00;99.90;;;;;;6252559;28;20561;-64
2023/01/24 05:12:25;;;;;;;3.13;2.87;;;6.10;99.90;;;;;;6252455;28;20486;-64
2023/01/24 05:15:28;;;;;;;4.67;3.93;;;6.00;99.90;;;;;;6252422;28;20485;-65
2023/01/24 05:18:32;;;;;;;3.20;2.90;;;5.90;99.90;;;;;;6252237;28;20486;-65
2023/01/24 05:21:36;;;;;;;3.00;2.80;;;6.00;99.90;;;;;;6251928;28;20502;-65
2023/01/24 05:24:39;;;;;;;4.00;3.63;;;6.00;99.90;;;;;;6252054;28;20816;-66
2023/01/24 05:27:43;;;;;;;3.47;3.27;;;6.00;99.90;;;;;;6251644;28;20936;-66
2023/01/24 05:30:46;;;;;;;3.23;2.93;;;6.00;99.90;;;;;;6252104;28;20531;-66
2023/01/24 05:33:51;;;;;;;3.77;3.37;;;6.00;99.90;;;;;;6251930;28;20963;-67
2023/01/24 05:36:54;;;;;;;3.67;3.37;;;6.00;99.90;;;;;;6251966;28;20475;-66
2023/01/24 05:39:57;;;;;;;4.07;3.33;;;6.00;99.90;;;;;;6251899;28;20466;-66
2023/01/24 05:43:00;;;;;;;3.53;3.20;;;6.00;99.90;;;;;;6251562;28;20978;-65
2023/01/24 05:46:05;;;;;;;3.50;3.30;;;6.00;99.90;;;;;;6251895;28;20516;-65
2023/01/24 05:49:10;;;;;;;3.70;3.40;;;6.00;99.90;;;;;;6242894;28;20928;-66
2023/01/24 05:52:18;;;;;;;2.83;2.60;;;6.00;99.90;;;;;;6224746;28;20459;-65
2023/01/24 05:55:21;;;;;;;3.97;3.67;;;6.00;99.90;;;;;;6230767;28;20961;-65
2023/01/24 05:58:25;;;;;;;4.03;3.63;;;6.10;99.90;;;;;;6231043;28;20464;-65
2023/01/24 06:01:28;;;;;;;3.83;2.97;;;6.10;99.90;;;;;;6227389;28;20479;-65
2023/01/24 06:04:33;;;;;;;7.07;5.33;;;6.00;99.90;;;;;;6227136;28;20460;-64
2023/01/24 06:07:36;;;;;;;10.43;7.20;;;6.00;99.90;;;;;;6226615;28;20474;-64
2023/01/24 06:10:39;;;;;;;7.30;3.87;;;6.00;99.90;;;;;;6226635;28;20802;-66
2023/01/24 06:13:43;;;;;;;3.90;3.60;;;5.90;99.90;;;;;;6226311;28;20968;-65
2023/01/24 06:16:47;;;;;;;3.10;2.90;;;5.90;99.90;;;;;;6227162;28;20464;-65
2023/01/24 06:19:52;;;;;;;3.23;3.00;;;5.80;99.90;;;;;;6226004;28;20796;-64
2023/01/24 06:23:00;;;;;;;2.87;2.63;;;5.80;99.90;;;;;;6226356;28;20480;-64
2023/01/24 06:26:04;;;;;;;3.00;2.80;;;5.80;99.90;;;;;;6234763;28;20486;-65
2023/01/24 06:29:09;;;;;;;4.17;3.77;;;5.90;99.90;;;;;;6250625;28;20966;-65
2023/01/24 06:32:28;;;;;;;3.90;3.50;;;5.90;99.90;;;;;;6250657;28;20475;-65
2023/01/24 06:35:43;;;;;;;3.87;3.57;;;5.90;99.90;;;;;;6250913;28;20490;-65
2023/01/24 06:38:47;;;;;;;3.97;3.57;;;6.00;99.90;;;;;;6250713;28;20482;-66
2023/01/24 06:41:50;;;;;;;3.90;3.60;;;6.00;99.90;;;;;;6250380;28;20965;-66
2023/01/24 06:44:53;;;;;;;4.97;4.47;;;6.10;99.90;;;;;;6250347;28;20475;-66
2023/01/24 06:47:57;;;;;;;4.50;3.93;;;6.10;99.90;;;;;;6250298;28;20494;-65
2023/01/24 06:51:03;;;;;;;4.30;3.90;;;6.20;99.90;;;;;;6250254;28;20564;-66
2023/01/24 06:54:06;;;;;;;4.90;4.50;;;6.20;99.90;;;;;;6250064;28;20467;-66
2023/01/24 06:57:10;;;;;;;5.10;4.60;;;6.20;99.90;;;;;;6249836;28;20502;-66
2023/01/24 07:00:14;;;;;;;4.60;4.20;;;6.30;99.90;;;;;;6250114;28;20475;-66
2023/01/24 07:03:17;;;;;;;6.13;5.40;;;6.30;99.90;;;;;;6249910;28;20540;-66
2023/01/24 07:06:23;;;;;;;6.83;6.13;;;6.30;99.90;;;;;;6249764;28;20471;-66
2023/01/24 07:09:26;;;;;;;5.60;4.97;;;6.40;99.90;;;;;;6249601;28;20485;-66
2023/01/24 07:12:30;;;;;;;6.80;5.10;;;6.40;99.90;;;;;;6249662;28;20466;-66
2023/01/24 07:15:34;;;;;;;6.10;5.50;;;6.40;99.90;;;;;;6249761;28;20482;-66
2023/01/24 07:18:38;;;;;;;5.33;4.83;;;6.40;99.90;;;;;;6249692;28;21074;-65
2023/01/24 07:21:43;;;;;;;7.70;5.50;;;6.30;99.90;;;;;;6249408;28;20463;-65
2023/01/24 07:24:48;;;;;;;6.60;6.03;;;6.30;99.90;;;;;;6249672;28;20786;-65
2023/01/24 07:27:52;;;;;;;5.37;4.93;;;6.20;99.90;;;;;;6249362;28;20489;-65
2023/01/24 07:30:55;;;;;;;5.03;4.60;;;6.20;99.90;;;;;;6249578;28;20483;-66
2023/01/24 07:33:58;;;;;;;4.50;4.10;;;6.30;99.90;;;;;;6249270;28;20986;-65
2023/01/24 07:37:03;;;;;;;5.03;4.20;;;6.30;99.90;;;;;;6249179;28;20463;-66
2023/01/24 07:40:07;;;;;;;4.57;4.17;;;6.30;99.90;;;;;;6249110;28;20470;-65
2023/01/24 07:43:10;;;;;;;4.83;4.43;;;6.30;99.90;;;;;;6249385;28;20454;-65
2023/01/24 07:46:13;;;;;;;6.57;5.87;;;6.30;99.90;;;;;;6248495;28;20444;-66
2023/01/24 07:49:17;;;;;;;5.53;5.00;;;6.30;99.90;;;;;;6248550;28;20489;-65
2023/01/24 07:52:21;;;;;;;5.27;4.77;;;6.30;99.90;;;;;;6248449;28;20439;-66
2023/01/24 07:55:25;;;;;;;5.40;4.90;;;6.40;99.90;;;;;;6249296;28;20955;-65
2023/01/24 07:58:29;;;;;;;6.00;5.50;;;6.40;99.90;;;;;;6248845;28;20467;-65
2023/01/24 08:01:32;;;;;;;8.57;6.10;;;6.30;99.90;;;;;;6244192;28;20470;-65
2023/01/24 08:04:35;;;;;;;6.73;5.77;;;6.30;99.90;;;;;;6245837;28;20478;-65
2023/01/24 08:07:40;;;;;;;6.60;6.00;;;6.20;99.90;;;;;;6253450;28;20548;-65
2023/01/24 08:10:43;;;;;;;7.23;6.60;;;6.10;99.90;;;;;;6252612;28;20781;-66
2023/01/24 08:13:46;;;;;;;6.30;5.50;;;6.10;99.90;;;;;;6253209;28;20467;-66
2023/01/24 08:16:50;;;;;;;7.10;6.40;;;6.20;99.90;;;;;;6253634;28;20467;-65
2023/01/24 08:19:53;;;;;;;7.33;6.60;;;6.20;99.90;;;;;;6252733;28;20467;-66
2023/01/24 08:23:01;;;;;;;6.70;5.77;;;6.30;99.90;;;;;;6253230;28;20479;-65
2023/01/24 08:26:06;;;;;;;6.73;6.03;;;6.40;99.90;;;;;;6251083;28;20491;-67
2023/01/24 08:29:09;;;;;;;7.23;6.23;;;6.40;99.90;;;;;;6248551;28;20821;-65
2023/01/24 08:32:12;;;;;;;7.53;5.33;;;6.40;99.90;;;;;;6250024;28;20474;-65
2023/01/24 08:35:16;;;;;;;6.00;5.40;;;6.50;99.90;;;;;;6252545;28;20482;-64
2023/01/24 08:38:20;;;;;;;6.90;5.20;;;6.50;99.90;;;;;;6249691;28;20832;-65
2023/01/24 08:41:24;;;;;;;5.63;5.13;;;6.60;99.90;;;;;;6252896;28;20467;-63
2023/01/24 08:44:27;;;;;;;5.03;4.63;;;6.60;99.90;;;;;;6253051;28;20486;-63
2023/01/24 08:47:30;;;;;;;6.23;5.47;;;6.70;99.90;;;;;;6252973;28;20478;-63
2023/01/24 08:50:33;;;;;;;6.93;6.10;;;6.70;99.90;;;;;;6252635;28;20965;-63
2023/01/24 08:53:38;;;;;;;7.53;6.67;;;6.70;99.90;;;;;;6252629;28;20481;-63
2023/01/24 08:56:41;;;;;;;6.90;5.67;;;6.70;99.90;;;;;;6252916;28;20475;-62
2023/01/24 08:59:44;;;;;;;5.40;4.93;;;6.60;99.90;;;;;;6252084;28;20494;-64
2023/01/24 09:02:48;;;;;;;5.63;5.13;;;6.60;99.90;;;;;;6253027;28;20467;-64
2023/01/24 09:05:56;;;;;;;9.97;6.43;;;6.70;99.90;;;;;;6252701;28;20486;-63
2023/01/24 09:09:02;;;;;;;7.10;5.10;;;6.70;99.90;;;;;;6244002;28;20479;-62
2023/01/24 09:12:06;;;;;;;8.30;4.50;;;6.70;99.90;;;;;;6252348;28;20982;-62
2023/01/24 09:15:10;;;;;;;5.17;4.70;;;6.80;99.90;;;;;;6253001;28;20467;-62
2023/01/24 09:18:13;;;;;;;5.20;4.70;;;6.70;99.90;;;;;;6251782;28;20950;-64
2023/01/24 09:21:16;;;;;;;4.80;4.40;;;6.70;99.90;;;;;;6252144;28;20466;-63
2023/01/24 09:24:21;;;;;;;5.40;4.93;;;6.80;99.90;;;;;;6251865;28;20479;-63
2023/01/24 09:27:24;;;;;;;5.97;5.40;;;6.80;99.90;;;;;;6245966;28;20467;-62
2023/01/24 09:30:27;;;;;;;5.30;4.80;;;6.80;99.90;;;;;;6251951;28;20533;-62
2023/01/24 09:33:32;;;;;;;5.10;4.53;;;6.80;99.90;;;;;;6251808;28;20470;-61
2023/01/24 09:36:35;;;;;;;4.60;4.20;;;6.70;99.90;;;;;;6227598;28;20472;-61
2023/01/24 09:39:40;;;;;;;4.60;4.20;;;6.80;99.90;;;;;;6227625;28;20484;-61
2023/01/24 09:42:52;;;;;;;5.23;4.50;;;6.80;99.90;;;;;;6227354;28;20544;-62
2023/01/24 09:46:05;;;;;;;4.80;4.30;;;6.90;99.90;;;;;;6227124;28;20490;-64
2023/01/24 09:49:18;;;;;;;4.57;4.27;;;6.90;99.90;;;;;;6226529;28;20543;-62
2023/01/24 09:52:30;;;;;;;5.90;5.30;;;6.90;99.90;;;;;;6226617;28;20492;-63
2023/01/24 09:55:38;;;;;;;4.33;3.90;;;6.90;99.90;;;;;;6228112;28;20486;-64
2023/01/24 09:58:44;;;;;;;4.53;4.13;;;6.80;99.90;;;;;;6227013;28;20472;-62
2023/01/24 10:01:48;;;;;;;5.77;5.27;;;6.80;99.90;;;;;;6234307;28;20811;-61
2023/01/24 10:04:51;;;;;;;4.67;4.27;;;6.80;99.90;;;;;;6251958;28;20582;-66
2023/01/24 10:08:06;;;;;;;5.03;4.27;;;6.80;99.90;;;;;;6249938;28;20482;-62
2023/01/24 10:11:25;;;;;;;5.87;4.30;;;6.90;99.90;;;;;;6246084;28;20861;-63
2023/01/24 10:14:42;;;;;;;4.50;4.10;;;6.90;99.90;;;;;;6250845;28;20486;-62
2023/01/24 10:18:00;;;;;;;4.80;4.40;;;6.90;99.90;;;;;;6251146;28;20471;-65
2023/01/24 10:21:36;;;;;;;4.97;4.50;;;6.90;99.90;;;;;;6245372;28;20467;-61
2023/01/24 10:24:53;;;;;;;5.00;4.60;;;6.90;99.90;;;;;;6239988;28;20483;-64
2023/01/24 10:28:01;;;;;;;4.90;4.50;;;6.90;99.90;;;;;;6248512;28;20475;-62
2023/01/24 10:31:09;;;;;;;4.53;4.20;;;7.00;99.90;;;;;;6249448;28;20475;-62
2023/01/24 10:34:17;;;;;;;5.03;4.57;;;7.10;99.90;;;;;;6244403;28;20457;-62
2023/01/24 10:37:23;;;;;;;4.30;3.97;;;7.10;99.90;;;;;;6226021;28;20430;-66
2023/01/24 10:40:27;;;;;;;5.13;4.33;;;7.10;99.90;;;;;;6225381;28;20459;-65
2023/01/24 10:43:33;;;;;;;4.83;4.43;;;7.20;99.90;;;;;;6224325;28;20478;-65
2023/01/24 10:47:00;;;;;;;5.20;4.30;;;7.30;99.90;;;;;;6224509;28;20485;-65
2023/01/24 10:50:08;;;;;;;5.43;3.80;;;7.30;99.90;;;;;;6224201;28;20476;-65
2023/01/24 10:53:15;;;;;;;5.50;4.50;;;7.30;99.90;;;;;;6224300;28;20480;-64
2023/01/24 10:56:38;;;;;;;5.10;4.00;;;7.30;99.90;;;;;;6224861;28;20468;-64
2023/01/24 10:59:43;;;;;;;3.97;3.67;;;7.40;99.90;;;;;;6225516;28;20480;-65
2023/01/24 11:02:50;;;;;;;4.53;4.13;;;7.40;99.90;;;;;;6225345;28;20986;-64
2023/01/24 11:05:55;;;;;;;3.40;3.10;;;7.40;99.90;;;;;;6225532;28;20534;-66
2023/01/24 11:09:05;;;;;;;3.40;3.20;;;7.40;99.90;;;;;;6225430;28;20480;-65
2023/01/24 11:12:14;;;;;;;5.53;4.13;;;7.30;99.90;;;;;;6225023;28;20979;-65
2023/01/24 11:15:25;;;;;;;3.90;3.53;;;7.30;99.90;;;;;;6225217;28;20472;-66
2023/01/24 11:18:29;;;;;;;4.13;3.73;;;7.40;99.90;;;;;;6225191;28;20484;-64
2023/01/24 11:21:33;;;;;;;3.23;2.93;;;7.40;99.90;;;;;;6224655;28;20518;-66
2023/01/24 11:24:44;;;;;;;4.33;3.50;;;7.30;99.90;;;;;;6224924;28;20967;-66
2023/01/24 11:27:48;;;;;;;5.20;4.40;;;7.30;99.90;;;;;;6242553;28;20490;-64
2023/01/24 11:30:53;;;;;;;4.30;3.90;;;7.20;99.90;;;;;;6249294;28;20475;-63
2023/01/24 11:34:24;;;;;;;5.10;4.60;;;7.30;99.90;;;;;;6245627;28;20901;-65
2023/01/24 11:37:58;;;;;;;3.53;3.23;;;7.30;99.90;;;;;;6199856;28;20552;-63
2023/01/24 11:41:11;;;;;;;5.20;4.20;;;7.40;99.90;;;;;;6228975;28;20487;-66
2023/01/24 11:44:38;;;;;;;5.43;4.23;;;7.30;99.90;;;;;;6229698;28;20941;-65
2023/01/24 11:47:51;;;;;;;4.40;4.00;;;7.30;99.90;;;;;;6221186;28;20467;-64
2023/01/24 11:51:06;;;;;;;4.83;4.30;;;7.30;99.90;;;;;;6229283;28;20472;-65
2023/01/24 11:54:36;;;;;;;4.63;4.23;;;7.30;99.90;;;;;;6228417;28;20521;-65
2023/01/24 11:57:45;;;;;;;6.37;5.77;;;7.30;99.90;;;;;;6228191;28;20977;-64
2023/01/24 12:00:57;;;;;;;6.23;5.13;;;7.30;99.90;;;;;;6229379;28;20475;-65
2023/01/24 12:04:42;;;;;;;5.93;5.10;;;7.30;99.90;;;;;;6229070;28;20468;-65
2023/01/24 12:07:57;;;;;;;5.90;4.63;;;7.20;99.90;;;;;;6194299;28;20467;-64
2023/01/24 12:11:05;;;;;;;5.93;4.73;;;7.30;99.90;;;;;;6229120;28;20846;-64
2023/01/24 12:15:04;;;;;;;6.87;6.20;;;7.40;99.90;;;;;;6237639;28;20554;-65
2023/01/24 12:18:34;;;;;;;7.60;7.00;;;7.60;99.90;;;;;;6224221;28;20952;-65
2023/01/24 12:21:37;;;;;;;6.97;6.27;;;7.70;99.90;;;;;;6228808;28;20471;-66
2023/01/24 12:24:46;;;;;;;7.90;7.20;;;7.80;99.90;;;;;;6228579;28;20483;-65
2023/01/24 12:27:51;;;;;;;8.50;7.30;;;7.80;99.90;;;;;;6246879;28;20592;-65
2023/01/24 12:30:59;;;;;;;8.57;7.77;;;7.90;99.90;;;;;;6253430;28;20825;-65
2023/01/24 12:34:07;;;;;;;7.63;6.93;;;7.80;99.90;;;;;;6252834;28;20553;-66
2023/01/24 12:37:16;;;;;;;9.00;8.10;;;7.90;99.90;;;;;;6253105;28;20548;-65
2023/01/24 12:40:25;;;;;;;8.30;7.60;;;7.90;99.90;;;;;;6253635;28;20474;-64
2023/01/24 12:43:40;;;;;;;7.17;6.20;;;7.80;99.90;;;;;;6253333;28;20423;-66
2023/01/24 12:46:55;;;;;;;8.20;6.60;;;7.90;99.90;;;;;;6252732;28;20962;-66
2023/01/24 12:50:12;;;;;;;8.43;7.70;;;7.90;99.90;;;;;;6250049;28;20760;-65
2023/01/24 12:53:24;;;;;;;8.93;7.97;;;8.00;99.90;;;;;;6252144;28;20808;-64
2023/01/24 12:56:38;;;;;;;9.53;8.57;;;7.90;99.90;;;;;;6252691;28;20479;-65
2023/01/24 12:59:41;;;;;;;9.63;8.67;;;7.90;99.90;;;;;;6250341;28;20948;-66
2023/01/24 13:03:10;;;;;;;9.27;8.13;;;7.80;99.90;;;;;;6250725;28;20458;-66
2023/01/24 13:06:21;;;;;;;11.07;7.73;;;7.80;99.90;;;;;;6245963;28;20887;-66
2023/01/24 13:09:31;;;;;;;10.17;8.00;;;7.80;99.90;;;;;;6250602;28;20478;-66
2023/01/24 13:12:35;;;;;;;8.30;7.50;;;7.70;99.90;;;;;;6242788;28;20487;-66
2023/01/24 13:15:50;;;;;;;7.80;7.10;;;7.80;99.90;;;;;;6227942;28;20482;-66
2023/01/24 13:19:01;;;;;;;9.30;7.53;;;7.80;99.90;;;;;;6227542;28;20475;-67
2023/01/24 13:22:24;;;;;;;8.63;7.80;;;7.80;99.90;;;;;;6223065;28;20489;-66
2023/01/24 13:26:04;;;;;;;10.63;9.60;;;7.80;99.90;;;;;;6241831;28;20462;-66
2023/01/24 13:29:30;;;;;;;9.83;8.93;;;7.70;99.90;;;;;;6248412;28;20475;-66
2023/01/24 13:32:38;;;;;;;9.17;8.20;;;7.70;99.90;;;;;;6242807;28;20483;-66
2023/01/24 13:35:48;;;;;;;10.60;9.27;;;7.70;99.90;;;;;;6251861;28;21078;-66
2023/01/24 13:38:52;;;;;;;11.20;10.10;;;7.70;99.90;;;;;;6251844;28;20803;-66
2023/01/24 13:42:02;;;;;;;9.77;8.77;;;7.70;99.90;;;;;;6251801;28;20486;-66
2023/01/24 13:45:51;;;;;;;11.93;9.23;;;7.80;99.90;;;;;;6251479;28;20475;-66
2023/01/24 13:48:57;;;;;;;11.03;9.50;;;7.70;99.90;;;;;;6216361;28;20630;-65
2023/01/24 13:52:01;;;;;;;11.57;9.83;;;7.70;99.90;;;;;;6251242;28;20483;-66
2023/01/24 13:55:06;;;;;;;10.97;9.97;;;7.70;99.90;;;;;;6251165;28;20475;-66
2023/01/24 13:58:23;;;;;;;9.97;8.97;;;7.70;99.90;;;;;;6250912;28;21017;-64
2023/01/24 14:01:27;;;;;;;8.87;7.97;;;7.70;99.90;;;;;;6251062;28;20443;-64
2023/01/24 14:04:41;;;;;;;10.57;9.47;;;7.70;99.90;;;;;;6249723;28;20479;-64
2023/01/24 14:07:45;;;;;;;11.27;9.20;;;7.70;99.90;;;;;;6250454;28;20471;-65
2023/01/24 14:10:53;;;;;;;11.43;10.40;;;7.70;99.90;;;;;;6250513;28;20471;-65
2023/01/24 14:14:16;;;;;;;11.13;10.10;;;7.70;99.90;;;;;;6232749;28;20472;-65
2023/01/24 14:17:48;;;;;;;11.97;10.87;;;7.70;99.90;;;;;;6248197;28;20463;-64
2023/01/24 14:20:52;;;;;;;11.10;9.90;;;7.80;99.90;;;;;;6250918;28;20545;-66
2023/01/24 14:24:00;;;;;;;12.03;10.20;;;7.80;99.90;;;;;;6250586;28;20471;-65
2023/01/24 14:27:19;;;;;;;11.87;10.50;;;7.70;99.90;;;;;;6246033;28;20468;-66
2023/01/24 14:30:33;;;;;;;10.67;9.60;;;7.70;99.90;;;;;;6226294;28;20480;-66
2023/01/24 14:33:49;;;;;;;10.70;9.50;;;7.80;99.90;;;;;;6225813;28;20484;-65
2023/01/24 14:37:03;;;;;;;12.03;10.80;;;7.80;99.90;;;;;;6226234;28;20472;-66
2023/01/24 14:40:20;;;;;;;12.90;9.73;;;7.80;99.90;;;;;;6225652;28;20832;-66
2023/01/24 14:43:32;;;;;;;11.67;10.50;;;7.80;99.90;;;;;;6226681;28;20436;-66
2023/01/24 14:46:35;;;;;;;12.60;11.33;;;7.70;99.90;;;;;;6225892;28;20472;-66
2023/01/24 14:49:45;;;;;;;12.27;11.03;;;7.80;99.90;;;;;;6226404;28;20482;-65
2023/01/24 14:52:50;;;;;;;13.80;11.80;;;7.70;99.90;;;;;;6225813;28;20473;-67
2023/01/24 14:55:55;;;;;;;12.50;11.03;;;7.70;99.90;;;;;;6226195;28;20468;-67
2023/01/24 14:59:11;;;;;;;13.73;12.10;;;7.70;99.90;;;;;;6225731;28;20939;-66
2023/01/24 15:02:17;;;;;;;11.20;10.20;;;7.70;99.90;;;;;;6225809;28;20472;-66
2023/01/24 15:05:26;;;;;;;12.87;11.63;;;7.70;99.90;;;;;;6225207;28;20941;-68
2023/01/24 15:08:31;;;;;;;13.70;11.57;;;7.70;99.90;;;;;;6225762;28;20976;-66
2023/01/24 15:11:37;;;;;;;14.10;12.50;;;7.60;99.90;;;;;;6225393;28;20928;-67
2023/01/24 15:14:43;;;;;;;15.20;11.37;;;7.60;99.90;;;;;;6249731;28;20473;-66
2023/01/24 15:17:48;;;;;;;14.40;11.67;;;7.50;99.90;;;;;;6249596;28;20475;-66
2023/01/24 15:20:51;;;;;;;12.83;11.67;;;7.60;99.90;;;;;;6249615;28;20475;-66
2023/01/24 15:23:57;;;;;;;18.50;14.10;;;7.60;99.90;;;;;;6249735;28;20471;-66
2023/01/24 15:27:21;;;;;;;12.00;10.90;;;7.60;99.90;;;;;;6245675;28;20483;-66
2023/01/24 15:30:26;;;;;;;12.27;11.07;;;7.60;99.90;;;;;;6225252;28;20483;-65
2023/01/24 15:33:41;;;;;;;14.30;12.80;;;7.60;99.90;;;;;;6225163;28;20976;-66
2023/01/24 15:36:44;;;;;;;12.70;11.37;;;7.60;99.90;;;;;;6224686;28;20468;-65
2023/01/24 15:39:57;;;;;;;14.13;11.93;;;7.50;99.90;;;;;;6225255;28;20792;-65
2023/01/24 15:49:58;;;;;;;13.20;11.47;;;7.40;99.90;;;;;;6225407;28;20472;-66
2023/01/24 15:53:12;;;;;;;12.60;11.30;;;7.40;99.90;;;;;;6224739;28;20967;-66
2023/01/24 15:56:21;;;;;;;13.40;11.97;;;7.30;99.90;;;;;;6224764;28;20498;-65
2023/01/24 15:59:24;;;;;;;12.33;11.13;;;7.30;99.90;;;;;;6222609;28;20479;-65
2023/01/24 16:02:28;;;;;;;12.60;11.30;;;7.30;99.90;;;;;;6235980;28;20505;-65
2023/01/24 16:05:31;;;;;;;16.77;13.57;;;7.30;99.90;;;;;;6247575;28;20500;-65
2023/01/24 16:08:35;;;;;;;14.63;13.10;;;7.30;99.90;;;;;;6247399;28;21127;-65
2023/01/24 16:11:41;;;;;;;19.90;13.30;;;7.30;99.90;;;;;;6248464;28;20479;-65
2023/01/24 16:14:48;;;;;;;15.30;13.70;;;7.10;99.90;;;;;;6225141;28;20488;-64
2023/01/24 16:18:11;;;;;;;17.10;15.30;;;7.10;99.90;;;;;;6225053;28;20488;-65
2023/01/24 16:21:14;;;;;;;16.00;13.93;;;6.80;99.90;;;;;;6224703;28;20817;-66
2023/01/24 16:24:18;;;;;;;18.90;16.10;;;6.90;99.90;;;;;;6224780;28;20468;-67
2023/01/24 16:27:23;;;;;;;18.47;16.47;;;6.90;99.90;;;;;;6245471;28;20474;-65
2023/01/24 16:30:27;;;;;;;18.63;15.80;;;7.00;99.90;;;;;;6230545;28;20841;-65
2023/01/24 16:33:30;;;;;;;30.77;21.03;;;6.90;99.90;;;;;;6224556;28;20480;-65
2023/01/24 16:36:34;;;;;;;20.27;17.83;;;7.00;99.90;;;;;;6228879;28;20482;-65
2023/01/24 16:39:37;;;;;;;21.50;17.70;;;7.00;99.90;;;;;;6228936;28;20472;-66
2023/01/24 16:42:43;;;;;;;23.93;17.90;;;6.90;99.90;;;;;;6229490;28;20490;-66
2023/01/24 16:45:48;;;;;;;20.17;17.60;;;6.70;99.90;;;;;;6229438;28;20472;-66
2023/01/24 16:48:52;;;;;;;20.00;17.67;;;6.80;99.90;;;;;;6228633;28;20476;-65
2023/01/24 16:51:55;;;;;;;23.97;18.83;;;6.80;99.90;;;;;;6229464;28;20475;-65
2023/01/24 16:54:59;;;;;;;25.43;18.90;;;6.80;99.90;;;;;;6228908;28;20484;-66
2023/01/24 16:58:03;;;;;;;20.40;17.57;;;6.90;99.90;;;;;;6228434;28;20487;-65
2023/01/24 17:01:08;;;;;;;20.70;18.03;;;6.90;99.90;;;;;;6229117;28;20483;-65